createdAt,value
2023-04-21T00:01:41.809Z,94.54
2023-04-21T00:04:28.151Z,94.66
2023-04-21T00:07:13.802Z,94.66
2023-04-21T00:09:58.903Z,93.31
2023-04-21T00:12:44.204Z,92.88
2023-04-21T00:15:29.639Z,93.33
2023-04-21T00:18:15.354Z,93.16
2023-04-21T00:21:01.202Z,93.23
2023-04-21T00:23:46.423Z,93.75
2023-04-21T00:26:31.774Z,93.99
2023-04-21T00:29:18.061Z,94.89
2023-04-21T00:32:04.052Z,94.83
2023-04-21T00:34:49.589Z,95.05
2023-04-21T00:37:34.871Z,95.75
2023-04-21T00:40:20.087Z,96.60
2023-04-21T00:43:08.249Z,97.40
2023-04-21T00:45:53.355Z,97.17
2023-04-21T00:48:38.753Z,98.19
2023-04-21T00:51:24.806Z,98.63
2023-04-21T00:54:11.959Z,98.97
2023-04-21T00:56:57.190Z,99.35
2023-04-21T00:59:42.729Z,98.70
2023-04-21T01:02:28.262Z,99.76
2023-04-21T01:05:13.651Z,97.50
2023-04-21T01:07:59.163Z,96.48
2023-04-21T01:10:44.716Z,95.39
2023-04-21T01:13:30.586Z,94.37
2023-04-21T01:16:19.547Z,94.46
2023-04-21T01:19:04.706Z,94.02
2023-04-21T01:21:49.989Z,94.41
2023-04-21T01:24:40.057Z,94.42
2023-04-21T01:27:25.268Z,93.73
2023-04-21T01:30:12.515Z,93.35
2023-04-21T01:32:58.090Z,93.37
2023-04-21T01:35:44.953Z,92.76
2023-04-21T01:38:30.606Z,93.85
2023-04-21T01:41:18.408Z,93.09
2023-04-21T01:44:03.769Z,92.26
2023-04-21T01:46:49.621Z,92.71
2023-04-21T01:49:36.758Z,92.65
2023-04-21T01:52:22.076Z,93.65
2023-04-21T01:55:07.771Z,92.26
2023-04-21T01:57:53.203Z,93.42
2023-04-21T02:00:38.361Z,93.99
2023-04-21T02:03:23.814Z,93.46
2023-04-21T02:06:09.036Z,94.90
2023-04-21T02:08:54.525Z,94.65
2023-04-21T02:11:39.890Z,94.42
2023-04-21T02:14:26.241Z,94.83
2023-04-21T02:17:11.643Z,94.80
2023-04-21T02:19:56.851Z,93.46
2023-04-21T02:22:42.570Z,93.59
2023-04-21T02:25:27.991Z,93.48
2023-04-21T02:28:13.567Z,94.11
2023-04-21T02:30:58.922Z,93.26
2023-04-21T02:33:45.056Z,93.60
2023-04-21T02:36:30.573Z,92.35
2023-04-21T02:39:16.641Z,90.25
2023-04-21T02:42:02.268Z,91.68
2023-04-21T02:44:47.556Z,91.91
2023-04-21T02:47:32.756Z,92.06
2023-04-21T02:50:18.414Z,91.84
2023-04-21T02:53:03.860Z,91.65
2023-04-21T02:55:49.436Z,91.79
2023-04-21T02:58:37.972Z,92.29
2023-04-21T03:01:23.453Z,91.90
2023-04-21T03:04:08.850Z,91.13
2023-04-21T03:06:56.613Z,89.74
2023-04-21T03:09:41.755Z,89.70
2023-04-21T03:12:27.303Z,88.14
2023-04-21T03:15:12.392Z,87.23
2023-04-21T03:17:57.706Z,86.21
2023-04-21T03:20:44.466Z,85.84
2023-04-21T03:23:30.320Z,85.31
2023-04-21T03:26:15.720Z,84.83
2023-04-21T03:29:01.190Z,84.99
2023-04-21T03:31:46.324Z,84.56
2023-04-21T03:34:31.454Z,84.35
2023-04-21T03:37:19.462Z,84.51
2023-04-21T03:40:05.327Z,83.98
2023-04-21T03:42:50.672Z,83.97
2023-04-21T03:45:37.438Z,84.63
2023-04-21T03:48:22.945Z,86.54
2023-04-21T03:51:08.384Z,87.67
2023-04-21T03:53:53.920Z,88.59
2023-04-21T03:56:39.356Z,86.50
2023-04-21T03:59:24.861Z,87.36
2023-04-21T04:02:10.465Z,87.16
2023-04-21T04:04:55.908Z,86.61
2023-04-21T04:07:41.670Z,86.74
2023-04-21T04:10:26.983Z,87.17
2023-04-21T04:13:12.198Z,87.03
2023-04-21T04:15:57.825Z,88.18
2023-04-21T04:18:42.901Z,87.54
2023-04-21T04:21:28.326Z,87.14
2023-04-21T04:24:14.035Z,86.48
2023-04-21T04:27:00.261Z,87.01
2023-04-21T04:29:46.559Z,87.26
2023-04-21T04:32:34.221Z,88.23
2023-04-21T04:35:20.486Z,89.79
2023-04-21T04:38:06.415Z,90.31
2023-04-21T04:40:55.240Z,91.19
2023-04-21T04:43:40.325Z,92.15
2023-04-21T04:46:25.810Z,92.47
2023-04-21T04:49:11.055Z,93.00
2023-04-21T04:51:56.891Z,93.72
2023-04-21T04:54:42.553Z,94.15
2023-04-21T04:57:28.036Z,93.62
2023-04-21T05:00:13.673Z,94.59
2023-04-21T05:02:59.003Z,93.50
2023-04-21T05:05:44.188Z,93.08
2023-04-21T05:08:29.450Z,94.02
2023-04-21T05:11:14.677Z,94.08
2023-04-21T05:14:00.055Z,94.71
2023-04-21T05:16:45.423Z,94.02
2023-04-21T05:19:30.553Z,93.53
2023-04-21T05:22:15.890Z,92.06
2023-04-21T05:25:05.451Z,92.99
2023-04-21T05:27:50.672Z,92.36
2023-04-21T05:30:36.218Z,91.85
2023-04-21T05:33:21.596Z,92.68
2023-04-21T05:36:08.323Z,92.71
2023-04-21T05:38:53.618Z,92.74
2023-04-21T05:41:39.221Z,91.72
2023-04-21T05:44:24.703Z,93.38
2023-04-21T05:47:10.613Z,92.28
2023-04-21T05:49:56.150Z,93.73
2023-04-21T05:52:41.430Z,95.30
2023-04-21T05:55:27.367Z,92.24
2023-04-21T05:58:12.450Z,89.07
2023-04-21T06:00:58.036Z,87.62
2023-04-21T06:03:43.658Z,86.61
2023-04-21T06:06:29.220Z,88.19
2023-04-21T06:09:15.417Z,88.19
2023-04-21T06:12:00.616Z,91.32
2023-04-21T06:14:45.921Z,89.40
2023-04-21T06:17:31.162Z,88.53
2023-04-21T06:20:16.368Z,88.36
2023-04-21T06:23:01.904Z,86.90
2023-04-21T06:25:47.501Z,88.32
2023-04-21T06:28:34.185Z,89.99
2023-04-21T06:31:21.130Z,88.97
2023-04-21T06:34:06.560Z,86.43
2023-04-21T06:36:52.567Z,86.86
2023-04-21T06:39:37.746Z,86.11
2023-04-21T06:42:23.163Z,87.91
2023-04-21T06:45:09.277Z,84.55
2023-04-21T06:47:54.762Z,84.63
2023-04-21T06:50:40.001Z,84.76
2023-04-21T06:53:25.261Z,84.90
2023-04-21T06:56:10.578Z,82.63
2023-04-21T06:58:56.477Z,78.35
2023-04-21T07:01:41.882Z,77.30
2023-04-21T07:04:27.300Z,77.45
2023-04-21T07:07:12.564Z,80.97
2023-04-21T07:09:57.954Z,77.19
2023-04-21T07:12:43.174Z,78.34
2023-04-21T07:15:29.889Z,76.29
2023-04-21T07:18:15.109Z,73.37
2023-04-21T07:21:00.647Z,75.33
2023-04-21T07:23:45.932Z,75.28
2023-04-21T07:26:32.135Z,76.91
2023-04-21T07:29:20.212Z,75.08
2023-04-21T07:32:06.034Z,72.64
2023-04-21T07:34:51.527Z,73.28
2023-04-21T07:37:38.013Z,77.02
2023-04-21T07:40:23.340Z,78.91
2023-04-21T07:43:08.724Z,78.60
2023-04-21T07:45:54.267Z,77.78
2023-04-21T07:48:40.792Z,72.47
2023-04-21T07:51:26.582Z,73.89
2023-04-21T07:54:12.254Z,75.26
2023-04-21T07:56:57.701Z,74.00
2023-04-21T07:59:44.287Z,74.06
2023-04-21T08:02:30.213Z,73.25
2023-04-21T08:05:16.324Z,74.92
2023-04-21T08:08:02.089Z,74.18
2023-04-21T08:10:48.003Z,72.63
2023-04-21T08:13:33.440Z,72.57
2023-04-21T08:16:18.991Z,73.55
2023-04-21T08:19:04.535Z,74.05
2023-04-21T08:21:49.940Z,72.90
2023-04-21T08:24:35.321Z,75.50
2023-04-21T08:27:20.444Z,71.20
2023-04-21T08:30:06.872Z,74.85
2023-04-21T08:32:52.136Z,73.41
2023-04-21T08:35:38.423Z,71.12
2023-04-21T08:38:24.740Z,70.76
2023-04-21T08:41:10.444Z,70.79
2023-04-21T08:43:55.716Z,71.89
2023-04-21T08:46:42.616Z,69.46
2023-04-21T08:49:30.563Z,71.05
2023-04-21T08:52:16.042Z,74.24
2023-04-21T08:55:01.631Z,75.50
2023-04-21T08:57:46.909Z,69.08
2023-04-21T09:00:32.127Z,70.30
2023-04-21T09:03:26.268Z,69.44
2023-04-21T09:06:12.700Z,72.12
2023-04-21T09:08:58.301Z,72.30
2023-04-21T09:11:43.606Z,70.43
2023-04-21T09:14:32.353Z,69.51
2023-04-21T09:17:18.961Z,69.84
2023-04-21T09:20:13.194Z,66.71
2023-04-21T09:22:58.762Z,67.33
2023-04-21T09:25:45.382Z,70.76
2023-04-21T09:28:31.649Z,67.93
2023-04-21T09:31:19.145Z,67.74
2023-04-21T09:34:22.103Z,68.49
2023-04-21T09:37:07.265Z,67.78
2023-04-21T09:40:03.363Z,68.60
2023-04-21T09:42:49.763Z,67.93
2023-04-21T09:45:40.089Z,68.70
2023-04-21T09:48:31.634Z,68.70
2023-04-21T09:54:29.733Z,63.32
2023-04-21T09:57:21.322Z,65.27
2023-04-21T10:00:08.575Z,66.32
2023-04-21T10:02:55.255Z,65.36
2023-04-21T10:05:42.789Z,66.23
2023-04-21T10:08:28.704Z,66.21
2023-04-21T10:11:14.510Z,64.34
2023-04-21T10:14:00.305Z,67.26
2023-04-21T10:16:56.371Z,66.05
2023-04-21T10:19:55.510Z,64.09
2023-04-21T10:22:42.816Z,63.47
2023-04-21T10:25:29.706Z,66.46
2023-04-21T10:28:18.410Z,63.82
2023-04-21T10:31:18.115Z,64.08
2023-04-21T10:34:06.353Z,62.18
2023-04-21T10:37:10.081Z,65.20
2023-04-21T10:39:56.039Z,64.30
2023-04-21T10:42:41.450Z,65.61
2023-04-21T10:45:26.603Z,65.43
2023-04-21T10:48:13.890Z,64.56
2023-04-21T10:50:59.159Z,62.39
2023-04-21T10:53:44.580Z,63.52
2023-04-21T10:56:33.288Z,63.15
2023-04-21T10:59:20.276Z,64.76
2023-04-21T11:02:08.811Z,63.00
2023-04-21T11:04:55.751Z,66.88
2023-04-21T11:07:41.186Z,60.98
2023-04-21T11:10:26.865Z,62.42
2023-04-21T11:13:12.075Z,62.97
2023-04-21T11:16:07.700Z,61.13
2023-04-21T11:18:53.357Z,59.79
2023-04-21T11:21:38.770Z,64.49
2023-04-21T11:24:24.770Z,60.56
2023-04-21T11:27:10.239Z,63.75
2023-04-21T11:29:56.216Z,58.67
2023-04-21T11:32:42.750Z,58.49
2023-04-21T11:35:28.238Z,57.67
2023-04-21T11:38:13.876Z,59.67
2023-04-21T11:40:59.350Z,57.63
2023-04-21T11:43:46.100Z,58.72
2023-04-21T11:46:31.588Z,58.70
2023-04-21T11:49:17.119Z,57.79
2023-04-21T11:52:02.705Z,56.00
2023-04-21T11:54:48.616Z,54.60
2023-04-21T11:57:34.225Z,57.59
2023-04-21T12:00:20.101Z,55.13
2023-04-21T12:03:09.195Z,58.22
2023-04-21T12:05:56.871Z,57.57
2023-04-21T12:08:42.129Z,55.76
2023-04-21T12:11:29.463Z,54.28
2023-04-21T12:14:15.754Z,54.01
2023-04-21T12:17:01.342Z,57.20
2023-04-21T12:19:47.282Z,54.15
2023-04-21T12:22:32.456Z,55.53
2023-04-21T12:25:17.961Z,55.18
2023-04-21T12:28:03.825Z,55.87
2023-04-21T12:30:48.973Z,54.36
2023-04-21T12:33:34.663Z,54.92
2023-04-21T12:36:20.072Z,53.94
2023-04-21T12:39:05.765Z,54.20
2023-04-21T12:41:51.302Z,53.76
2023-04-21T12:44:38.766Z,54.66
2023-04-21T12:47:24.011Z,52.75
2023-04-21T12:50:09.715Z,50.86
2023-04-21T12:52:55.058Z,52.33
2023-04-21T12:55:44.652Z,52.02
2023-04-21T12:58:35.230Z,54.19
2023-04-21T13:01:24.370Z,54.81
2023-04-21T13:04:10.160Z,53.50
2023-04-21T13:06:55.784Z,53.85
2023-04-21T13:09:41.204Z,52.03
2023-04-21T13:12:26.804Z,53.36
2023-04-21T13:15:12.110Z,53.60
2023-04-21T13:17:57.322Z,50.32
2023-04-21T13:20:42.710Z,51.49
2023-04-21T13:23:29.365Z,49.33
2023-04-21T13:26:14.956Z,50.60
2023-04-21T13:29:00.131Z,49.87
2023-04-21T13:31:45.555Z,48.77
2023-04-21T13:34:32.888Z,49.07
2023-04-21T13:37:18.944Z,49.78
2023-04-21T13:40:05.577Z,50.89
2023-04-21T13:42:51.007Z,48.81
2023-04-21T13:45:36.680Z,50.19
2023-04-21T13:48:22.180Z,50.32
2023-04-21T13:51:07.652Z,48.18
2023-04-21T13:53:53.013Z,46.06
2023-04-21T13:56:38.362Z,47.36
2023-04-21T13:59:23.782Z,48.38
2023-04-21T14:02:09.138Z,49.17
2023-04-21T14:04:55.001Z,47.06
2023-04-21T14:07:40.381Z,48.49
2023-04-21T14:10:26.039Z,46.16
2023-04-21T14:13:23.105Z,48.43
2023-04-21T14:16:16.911Z,48.43
2023-04-21T14:19:02.633Z,46.99
2023-04-21T14:21:47.771Z,46.49
2023-04-21T14:24:33.030Z,45.46
2023-04-21T14:27:18.258Z,45.98
2023-04-21T14:30:04.324Z,46.26
2023-04-21T14:32:49.798Z,45.67
2023-04-21T14:35:37.741Z,45.25
2023-04-21T14:38:23.212Z,45.11
2023-04-21T14:41:08.753Z,44.02
2023-04-21T14:43:54.176Z,47.61
2023-04-21T14:46:39.746Z,46.56
2023-04-21T14:49:25.235Z,48.72
2023-04-21T14:52:10.951Z,46.56
2023-04-21T14:54:56.189Z,45.63
2023-04-21T14:57:41.787Z,45.77
2023-04-21T15:00:27.275Z,46.73
2023-04-21T15:03:12.704Z,45.39
2023-04-21T15:05:58.369Z,44.95
2023-04-21T15:08:44.761Z,45.93
2023-04-21T15:11:30.089Z,44.87
2023-04-21T15:14:15.735Z,44.19
2023-04-21T15:17:00.930Z,46.45
2023-04-21T15:19:46.929Z,44.73
2023-04-21T15:22:32.587Z,43.47
2023-04-21T15:25:18.198Z,43.67
2023-04-21T15:28:03.951Z,43.35
2023-04-21T15:30:49.766Z,43.50
2023-04-21T15:33:35.452Z,46.17
2023-04-21T15:36:21.232Z,44.99
2023-04-21T15:39:06.258Z,45.22
2023-04-21T15:41:51.854Z,45.03
2023-04-21T15:44:37.277Z,45.72
2023-04-21T15:47:23.226Z,45.52
2023-04-21T15:50:09.226Z,46.70
2023-04-21T15:52:54.798Z,45.40
2023-04-21T15:55:39.883Z,44.50
2023-04-21T15:58:25.378Z,46.33
2023-04-21T16:01:11.095Z,46.14
2023-04-21T16:03:56.577Z,46.25
2023-04-21T16:06:42.358Z,44.65
2023-04-21T16:09:28.023Z,44.89
2023-04-21T16:12:13.121Z,45.00
2023-04-21T16:15:04.194Z,45.31
2023-04-21T16:18:01.704Z,46.00
2023-04-21T16:20:46.867Z,45.53
2023-04-21T16:23:32.283Z,47.05
2023-04-21T16:26:17.808Z,46.81
2023-04-21T16:29:03.261Z,46.41
2023-04-21T16:31:48.458Z,45.45
2023-04-21T16:34:33.909Z,45.75
2023-04-21T16:37:20.477Z,46.96
2023-04-21T16:40:07.495Z,46.15
2023-04-21T16:42:52.889Z,46.72
2023-04-21T16:45:38.685Z,46.93
2023-04-21T16:48:24.009Z,46.71
2023-04-21T16:51:09.135Z,47.83
2023-04-21T16:53:54.547Z,47.58
2023-04-21T16:56:39.856Z,47.98
2023-04-21T16:59:25.358Z,47.62
2023-04-21T17:02:10.654Z,47.75
2023-04-21T17:04:56.235Z,48.25
2023-04-21T17:07:41.795Z,48.74
2023-04-21T17:10:27.144Z,49.23
2023-04-21T17:13:12.492Z,49.25
2023-04-21T17:15:57.985Z,50.23
2023-04-21T17:18:43.539Z,49.39
2023-04-21T17:21:28.906Z,50.19
2023-04-21T17:24:14.135Z,50.05
2023-04-21T17:26:59.484Z,49.97
2023-04-21T17:29:44.634Z,50.31
2023-04-21T17:32:32.751Z,50.72
2023-04-21T17:35:18.510Z,50.80
2023-04-21T17:38:03.717Z,50.91
2023-04-21T17:40:48.980Z,50.99
2023-04-21T17:43:34.288Z,51.44
2023-04-21T17:46:19.860Z,52.23
2023-04-21T17:49:05.547Z,52.27
2023-04-21T17:51:51.022Z,53.17
2023-04-21T17:54:36.530Z,53.37
2023-04-21T17:57:22.301Z,53.78
2023-04-21T18:00:08.487Z,53.81
2023-04-21T18:02:53.884Z,54.06
2023-04-21T18:05:39.870Z,54.03
2023-04-21T18:08:25.399Z,54.18
2023-04-21T18:11:10.747Z,54.44
2023-04-21T18:13:56.262Z,55.14
2023-04-21T18:16:41.522Z,54.71
2023-04-21T18:19:26.890Z,54.98
2023-04-21T18:22:12.270Z,55.17
2023-04-21T18:24:58.054Z,55.68
2023-04-21T18:27:43.789Z,55.85
2023-04-21T18:30:30.749Z,56.26
2023-04-21T18:33:16.326Z,56.34
2023-04-21T18:36:01.651Z,56.09
2023-04-21T18:38:47.322Z,56.65
2023-04-21T18:41:32.588Z,56.37
2023-04-21T18:44:17.843Z,57.15
2023-04-21T18:47:03.530Z,56.93
2023-04-21T18:49:49.123Z,57.10
2023-04-21T18:52:34.474Z,57.43
2023-04-21T18:55:20.838Z,58.45
2023-04-21T18:58:06.405Z,58.75
2023-04-21T19:00:51.888Z,59.38
2023-04-21T19:03:38.045Z,58.34
2023-04-21T19:06:23.733Z,57.42
2023-04-21T19:09:09.318Z,56.95
2023-04-21T19:11:54.670Z,56.15
2023-04-21T19:14:46.484Z,55.89
2023-04-21T19:17:32.901Z,56.73
2023-04-21T19:20:18.893Z,57.27
2023-04-21T19:23:04.482Z,57.49
2023-04-21T19:25:50.005Z,57.78
2023-04-21T19:28:39.420Z,57.74
2023-04-21T19:31:25.547Z,58.19
2023-04-21T19:34:11.088Z,58.44
2023-04-21T19:36:56.817Z,58.46
2023-04-21T19:39:42.657Z,58.84
2023-04-21T19:42:28.358Z,59.13
2023-04-21T19:45:14.063Z,59.16
2023-04-21T19:47:59.622Z,59.02
2023-04-21T19:50:45.038Z,58.60
2023-04-21T19:53:30.515Z,59.21
2023-04-21T19:56:16.243Z,59.90
2023-04-21T19:59:01.615Z,60.76
2023-04-21T20:01:46.920Z,60.53
2023-04-21T20:04:32.507Z,60.80
2023-04-21T20:07:17.856Z,60.70
2023-04-21T20:10:04.382Z,60.80
2023-04-21T20:12:49.620Z,60.69
2023-04-21T20:15:35.020Z,60.61
2023-04-21T20:18:20.756Z,60.72
2023-04-21T20:21:06.098Z,62.08
2023-04-21T20:23:51.391Z,62.14
2023-04-21T20:26:36.812Z,61.91
2023-04-21T20:29:22.152Z,63.05
2023-04-21T20:32:07.398Z,64.05
2023-04-21T20:34:52.986Z,63.86
2023-04-21T20:37:38.377Z,63.68
2023-04-21T20:40:24.099Z,64.42
2023-04-21T20:43:09.843Z,64.00
2023-04-21T20:45:55.282Z,64.20
2023-04-21T20:48:40.803Z,64.02
2023-04-21T20:51:26.399Z,64.10
2023-04-21T20:54:11.441Z,64.96
2023-04-21T20:56:56.656Z,64.84
2023-04-21T20:59:42.124Z,64.54
2023-04-21T21:02:27.810Z,65.14
2023-04-21T21:05:13.369Z,65.95
2023-04-21T21:07:59.011Z,66.71
2023-04-21T21:10:44.446Z,67.41
2023-04-21T21:13:29.856Z,67.65
2023-04-21T21:16:15.614Z,65.43
2023-04-21T21:19:01.041Z,64.92
2023-04-21T21:21:46.160Z,64.03
2023-04-21T21:24:31.894Z,64.01
2023-04-21T21:27:17.159Z,63.95
2023-04-21T21:30:03.312Z,64.46
2023-04-21T21:32:48.489Z,64.84
2023-04-21T21:35:33.651Z,65.04
2023-04-21T21:38:19.191Z,64.64
2023-04-21T21:41:04.707Z,64.99
2023-04-21T21:43:50.377Z,65.82
2023-04-21T21:46:35.832Z,66.93
2023-04-21T21:49:21.112Z,67.49
2023-04-21T21:52:06.705Z,67.29
2023-04-21T21:55:17.575Z,67.19
2023-04-21T21:58:03.345Z,67.09
2023-04-21T22:00:49.036Z,66.27
2023-04-21T22:03:35.897Z,65.23
2023-04-21T22:06:21.803Z,64.91
2023-04-21T22:09:07.086Z,64.29
2023-04-21T22:11:52.768Z,65.43
2023-04-21T22:14:37.963Z,65.71
2023-04-21T22:17:25.008Z,66.68
2023-04-21T22:20:10.919Z,65.66
2023-04-21T22:22:56.325Z,64.08
2023-04-21T22:25:41.820Z,64.30
2023-04-21T22:28:27.466Z,65.13
2023-04-21T22:31:13.000Z,64.94
2023-04-21T22:33:58.357Z,64.58
2023-04-21T22:36:44.076Z,64.43
2023-04-21T22:39:29.496Z,64.60
2023-04-21T22:42:15.119Z,64.72
2023-04-21T22:45:00.590Z,64.92
2023-04-21T22:47:45.847Z,65.51
2023-04-21T22:50:31.309Z,65.32
2023-04-21T22:53:16.900Z,65.25
2023-04-21T22:56:03.061Z,65.24
2023-04-21T22:58:48.710Z,64.99
2023-04-21T23:01:33.829Z,65.46
2023-04-21T23:04:19.335Z,65.60
2023-04-21T23:07:04.839Z,65.00
2023-04-21T23:09:50.067Z,64.85
2023-04-21T23:12:35.341Z,65.06
2023-04-21T23:15:20.807Z,65.70
2023-04-21T23:18:06.459Z,66.26
2023-04-21T23:20:52.558Z,67.45
2023-04-21T23:23:37.562Z,68.16
2023-04-21T23:26:23.201Z,69.48
2023-04-21T23:29:08.370Z,69.94
2023-04-21T23:31:54.110Z,69.97
2023-04-21T23:34:39.652Z,70.38
2023-04-21T23:37:25.065Z,70.64
2023-04-21T23:40:11.115Z,70.74
2023-04-21T23:42:56.667Z,71.24
2023-04-21T23:45:42.303Z,71.35
2023-04-21T23:48:27.491Z,72.90
2023-04-21T23:51:12.964Z,73.08
2023-04-21T23:53:58.316Z,73.32
2023-04-21T23:56:43.762Z,72.81
2023-04-21T23:59:29.286Z,73.10
